createdAt,value
2019-02-21T00:02:57.516Z,74.40
2019-02-21T00:08:02.951Z,74.20
2019-02-21T00:13:08.434Z,74.10
2019-02-21T00:18:13.846Z,74.20
2019-02-21T00:23:19.248Z,74.10
2019-02-21T00:28:24.747Z,74.30
2019-02-21T00:33:30.151Z,74.50
2019-02-21T00:38:35.746Z,74.80
2019-02-21T00:43:41.194Z,75.20
2019-02-21T00:48:46.597Z,75.40
2019-02-21T00:53:52.059Z,75.90
2019-02-21T00:58:57.520Z,76.10
2019-02-21T01:04:02.882Z,76.40
2019-02-21T01:09:08.253Z,76.60
2019-02-21T01:14:13.721Z,76.90
2019-02-21T01:19:19.151Z,77.30
2019-02-21T01:24:24.563Z,77.20
2019-02-21T01:29:29.981Z,77.60
2019-02-21T01:34:35.434Z,77.70
2019-02-21T01:39:40.953Z,77.70
2019-02-21T01:44:46.383Z,77.70
2019-02-21T01:49:52.020Z,77.60
2019-02-21T01:54:57.448Z,77.50
2019-02-21T02:00:03.155Z,77.30
2019-02-21T02:05:08.985Z,77.00
2019-02-21T02:10:14.382Z,76.70
2019-02-21T02:15:19.892Z,76.40
2019-02-21T02:20:25.319Z,76.20
2019-02-21T02:25:30.696Z,75.90
2019-02-21T02:30:36.058Z,75.70
2019-02-21T02:35:41.460Z,75.60
2019-02-21T02:40:46.915Z,75.50
2019-02-21T02:45:52.451Z,75.40
2019-02-21T02:50:57.836Z,75.30
2019-02-21T02:56:03.340Z,75.20
2019-02-21T03:01:08.771Z,75.10
2019-02-21T03:06:14.148Z,75.00
2019-02-21T03:11:19.607Z,74.80
2019-02-21T03:16:25.073Z,74.70
2019-02-21T03:21:30.555Z,74.70
2019-02-21T03:26:35.954Z,74.50
2019-02-21T03:31:53.343Z,74.40
2019-02-21T03:36:48.740Z,74.30
2019-02-21T03:41:54.109Z,74.20
2019-02-21T03:46:59.480Z,74.20
2019-02-21T03:52:04.862Z,74.10
2019-02-21T03:57:10.322Z,74.10
2019-02-21T04:02:15.708Z,74.10
2019-02-21T04:07:21.921Z,74.00
2019-02-21T04:12:27.550Z,74.00
2019-02-21T04:17:32.969Z,74.00
2019-02-21T04:22:38.380Z,74.00
2019-02-21T04:27:43.822Z,74.10
2019-02-21T04:32:49.220Z,74.10
2019-02-21T04:37:54.636Z,74.20
2019-02-21T04:43:00.223Z,74.40
2019-02-21T04:48:05.596Z,74.40
2019-02-21T04:53:11.005Z,74.60
2019-02-21T04:58:16.395Z,74.90
2019-02-21T05:03:21.805Z,75.00
2019-02-21T05:08:27.199Z,75.10
2019-02-21T05:13:33.783Z,75.30
2019-02-21T05:18:39.338Z,75.70
2019-02-21T05:23:44.723Z,75.90
2019-02-21T05:28:50.163Z,76.40
2019-02-21T05:34:14.448Z,76.80
2019-02-21T05:39:50.791Z,77.10
2019-02-21T05:45:27.277Z,77.40
2019-02-21T05:50:41.581Z,77.80
2019-02-21T05:56:08.910Z,78.00
2019-02-21T06:01:31.981Z,78.20
2019-02-21T06:06:54.818Z,78.20
2019-02-21T06:12:17.828Z,78.50
2019-02-21T06:17:40.759Z,79.00
2019-02-21T06:23:17.082Z,79.20
2019-02-21T06:28:29.878Z,79.50
2019-02-21T06:33:35.505Z,79.60
2019-02-21T06:38:41.071Z,79.70
2019-02-21T06:43:46.513Z,80.10
2019-02-21T06:48:51.891Z,80.20
2019-02-21T06:53:57.370Z,80.10
2019-02-21T06:59:02.952Z,80.20
2019-02-21T07:04:08.480Z,80.20
2019-02-21T07:09:14.048Z,80.10
2019-02-21T07:14:19.488Z,80.10
2019-02-21T07:19:24.985Z,80.00
2019-02-21T07:24:30.751Z,79.90
2019-02-21T07:29:38.741Z,79.80
2019-02-21T07:34:43.307Z,79.60
2019-02-21T07:39:50.850Z,79.30
2019-02-21T07:44:55.938Z,78.90
2019-02-21T07:50:01.295Z,78.60
2019-02-21T07:55:07.007Z,78.20
2019-02-21T08:00:12.703Z,75.70
2019-02-21T08:05:18.081Z,73.50
2019-02-21T08:10:33.170Z,70.50
2019-02-21T08:15:30.603Z,68.50
2019-02-21T08:20:40.907Z,66.10
2019-02-21T08:25:43.023Z,63.30
2019-02-21T08:30:48.486Z,59.80
2019-02-21T08:35:54.355Z,57.30
2019-02-21T08:40:59.796Z,55.50
2019-02-21T08:46:05.338Z,55.30
2019-02-21T08:51:10.727Z,54.90
2019-02-21T08:56:16.347Z,54.70
2019-02-21T09:01:21.851Z,54.80
2019-02-21T09:06:27.238Z,53.90
2019-02-21T09:11:35.485Z,52.30
2019-02-21T09:16:41.079Z,50.20
2019-02-21T09:21:46.471Z,49.40
2019-02-21T09:26:52.020Z,49.30
2019-02-21T09:31:57.445Z,49.60
2019-02-21T09:37:05.353Z,48.60
2019-02-21T09:42:09.927Z,48.90
2019-02-21T09:47:15.310Z,49.90
2019-02-21T09:52:20.713Z,51.00
2019-02-21T09:57:26.275Z,51.90
2019-02-21T10:02:31.646Z,53.10
2019-02-21T10:07:37.270Z,53.80
2019-02-21T10:12:42.785Z,54.00
2019-02-21T10:17:50.756Z,53.50
2019-02-21T10:22:55.307Z,53.10
2019-02-21T10:28:00.721Z,52.60
2019-02-21T10:33:06.279Z,52.40
2019-02-21T10:38:11.739Z,52.00
2019-02-21T10:43:17.134Z,52.10
2019-02-21T10:48:22.523Z,52.70
2019-02-21T10:53:27.936Z,53.00
2019-02-21T10:58:33.437Z,53.00
2019-02-21T11:03:38.856Z,52.80
2019-02-21T11:08:44.271Z,53.00
2019-02-21T11:13:49.688Z,53.80
2019-02-21T11:18:55.133Z,54.10
2019-02-21T11:24:00.596Z,54.10
2019-02-21T11:29:06.257Z,54.40
2019-02-21T11:34:11.759Z,54.40
2019-02-21T11:39:17.424Z,53.70
2019-02-21T11:44:22.823Z,53.10
2019-02-21T11:49:28.321Z,52.60
2019-02-21T11:54:33.836Z,52.30
2019-02-21T11:59:39.305Z,52.70
2019-02-21T12:04:46.497Z,52.60
2019-02-21T12:09:51.916Z,52.50
2019-02-21T12:14:57.288Z,52.20
2019-02-21T12:20:02.925Z,52.20
2019-02-21T12:25:10.887Z,52.20
2019-02-21T12:30:18.014Z,52.50
2019-02-21T12:35:29.664Z,52.50
2019-02-21T12:40:30.802Z,52.60
2019-02-21T12:45:36.221Z,52.40
2019-02-21T12:50:44.510Z,51.90
2019-02-21T12:55:48.815Z,51.70
2019-02-21T13:00:54.431Z,51.30
2019-02-21T13:05:59.879Z,51.00
2019-02-21T13:11:05.355Z,51.80
2019-02-21T13:16:10.841Z,52.00
2019-02-21T13:21:16.289Z,52.00
2019-02-21T13:26:21.894Z,52.20
2019-02-21T13:31:27.260Z,52.90
2019-02-21T13:36:34.002Z,53.20
2019-02-21T13:41:39.820Z,53.60
2019-02-21T13:46:45.224Z,54.00
2019-02-21T13:51:50.779Z,54.40
2019-02-21T13:56:56.166Z,54.40
2019-02-21T14:02:01.768Z,54.40
2019-02-21T14:07:07.235Z,54.60
2019-02-21T14:12:12.733Z,55.00
2019-02-21T14:17:18.216Z,55.00
2019-02-21T14:22:23.690Z,55.00
2019-02-21T14:27:31.745Z,55.40
2019-02-21T14:32:36.399Z,56.80
2019-02-21T14:37:41.902Z,58.00
2019-02-21T14:42:47.285Z,59.00
2019-02-21T14:47:52.750Z,59.80
2019-02-21T14:52:58.562Z,60.40
2019-02-21T14:58:04.044Z,60.90
2019-02-21T15:03:21.662Z,61.20
2019-02-21T15:08:22.267Z,61.00
2019-02-21T15:13:27.920Z,60.40
2019-02-21T15:18:33.425Z,60.20
2019-02-21T15:23:38.860Z,60.00
2019-02-21T15:28:44.346Z,59.90
2019-02-21T15:33:49.880Z,59.90
2019-02-21T15:38:55.282Z,60.10
2019-02-21T15:44:00.680Z,60.60
2019-02-21T15:49:06.114Z,60.90
2019-02-21T15:54:12.514Z,61.10
2019-02-21T15:59:18.071Z,61.30
2019-02-21T16:04:23.684Z,61.60
2019-02-21T16:09:30.448Z,61.90
2019-02-21T16:14:37.707Z,62.40
2019-02-21T16:19:43.295Z,63.00
2019-02-21T16:24:48.783Z,63.30
2019-02-21T16:29:54.318Z,63.70
2019-02-21T16:34:59.925Z,64.00
2019-02-21T16:40:08.781Z,64.40
2019-02-21T16:45:15.002Z,64.80
2019-02-21T16:50:29.210Z,65.20
2019-02-21T16:55:27.681Z,65.90
2019-02-21T17:00:47.358Z,66.10
2019-02-21T18:19:40.787Z,67.80
2019-02-21T18:24:46.250Z,67.20
2019-02-21T18:29:51.700Z,68.00
2019-02-21T18:34:57.308Z,68.70
2019-02-21T18:40:02.733Z,69.10
2019-02-21T18:45:08.894Z,69.10
2019-02-21T18:50:15.868Z,69.40
2019-02-21T18:55:21.394Z,69.60
2019-02-21T19:00:27.177Z,69.70
2019-02-21T19:05:35.972Z,69.90
2019-02-21T19:24:37.058Z,69.80
2019-02-21T19:29:42.680Z,70.00
2019-02-21T19:34:48.313Z,70.40
2019-02-21T19:39:54.247Z,70.60
2019-02-21T19:45:00.000Z,70.80
2019-02-21T19:50:05.925Z,71.00
2019-02-21T19:55:11.421Z,71.30
2019-02-21T20:00:17.718Z,71.30
2019-02-21T20:05:23.284Z,71.70
2019-02-21T20:10:28.796Z,71.90
2019-02-21T20:15:34.269Z,72.10
2019-02-21T20:20:39.736Z,72.10
2019-02-21T20:25:45.167Z,72.20
2019-02-21T20:30:50.769Z,72.40
2019-02-21T20:35:56.327Z,72.40
2019-02-21T20:41:01.726Z,72.50
2019-02-21T20:46:07.150Z,72.70
2019-02-21T20:51:12.714Z,72.80
2019-02-21T20:56:18.276Z,73.10
2019-02-21T21:01:24.132Z,73.10
2019-02-21T21:06:29.659Z,73.10
2019-02-21T21:11:35.522Z,73.20
2019-02-21T21:16:41.012Z,73.30
2019-02-21T21:21:46.754Z,73.40
2019-02-21T21:26:52.401Z,73.50
2019-02-21T21:31:58.105Z,73.60
2019-02-21T21:37:03.739Z,73.60
2019-02-21T21:42:09.174Z,73.60
2019-02-21T21:47:14.735Z,73.60
2019-02-21T21:52:20.598Z,73.60
2019-02-21T21:57:26.154Z,73.50
2019-02-21T22:02:31.674Z,73.50
2019-02-21T22:07:37.070Z,74.00
2019-02-21T22:12:42.845Z,73.90
2019-02-21T22:17:48.335Z,73.60
2019-02-21T22:22:53.769Z,73.50
2019-02-21T22:27:59.165Z,73.50
2019-02-21T22:33:04.647Z,73.60
2019-02-21T22:38:10.445Z,73.70
2019-02-21T22:43:16.401Z,73.90
2019-02-21T22:48:22.026Z,74.10
2019-02-21T22:53:27.808Z,74.60
2019-02-21T22:58:33.385Z,75.00
2019-02-21T23:03:50.331Z,75.20
2019-02-21T23:08:56.261Z,75.50
2019-02-21T23:14:01.788Z,76.50
2019-02-21T23:19:07.188Z,76.00
2019-02-21T23:24:12.983Z,76.00
2019-02-21T23:29:18.434Z,76.30
2019-02-21T23:34:36.273Z,76.40
2019-02-21T23:39:41.729Z,76.60
2019-02-21T23:44:47.294Z,76.70
2019-02-21T23:49:52.866Z,76.90
2019-02-21T23:54:58.647Z,77.00
